createdAt,value
2023-04-10T16:33:30.728Z,68.60
2023-04-10T16:33:42.620Z,68.60
2023-04-10T16:33:54.341Z,68.60
2023-04-10T16:34:06.104Z,68.50
2023-04-10T16:34:18.096Z,68.30
2023-04-10T16:34:29.857Z,67.90
2023-04-10T16:34:41.744Z,67.90
2023-04-10T16:34:53.637Z,68.00
2023-04-10T16:35:06.232Z,68.10
2023-04-10T16:35:22.435Z,68.40
2023-04-10T16:35:34.287Z,68.40
2023-04-10T16:35:47.798Z,68.60
2023-04-10T16:35:59.803Z,68.60
2023-04-10T16:36:11.664Z,68.90
2023-04-10T16:36:23.739Z,69.00
2023-04-10T16:36:41.866Z,68.90
2023-04-10T16:36:53.727Z,69.10
2023-04-10T16:37:05.742Z,69.20
2023-04-10T16:37:17.604Z,68.70
2023-04-10T16:37:29.457Z,68.60
2023-04-10T16:37:41.277Z,68.60
2023-04-10T16:37:53.789Z,68.60
2023-04-10T16:38:05.570Z,68.60
2023-04-10T16:38:17.341Z,68.30
2023-04-10T16:38:29.109Z,68.00
2023-04-10T16:38:40.969Z,68.10
2023-04-10T16:38:52.886Z,68.40
2023-04-10T16:39:05.855Z,68.60
2023-04-10T16:39:17.638Z,68.80
2023-04-10T16:39:29.447Z,68.80
2023-04-10T16:39:41.429Z,68.80
2023-04-10T16:39:53.262Z,68.70
2023-04-10T16:40:05.731Z,68.60
2023-04-10T16:40:17.925Z,68.70
2023-04-10T16:40:32.844Z,68.50
2023-04-10T16:40:44.937Z,68.10
2023-04-10T16:40:57.963Z,68.10
2023-04-10T16:41:10.292Z,68.10
2023-04-10T16:41:22.840Z,68.10
2023-04-10T16:41:34.887Z,68.30
2023-04-10T16:41:46.719Z,68.30
2023-04-10T16:41:59.229Z,68.50
2023-04-10T16:42:11.132Z,68.60
2023-04-10T16:42:23.037Z,68.50
2023-04-10T16:42:34.952Z,68.50
2023-04-10T16:42:46.796Z,68.70
2023-04-10T16:43:00.251Z,68.60
2023-04-10T16:43:12.786Z,68.40
2023-04-10T16:43:24.909Z,68.50
2023-04-10T16:43:36.902Z,68.80
2023-04-10T16:43:48.781Z,68.70
2023-04-10T16:44:00.955Z,68.30
2023-04-10T16:44:12.840Z,68.90
2023-04-10T16:44:24.706Z,68.50
2023-04-10T16:44:36.696Z,68.70
2023-04-10T16:44:48.642Z,68.70
2023-04-10T16:45:02.168Z,68.90
2023-04-10T16:45:15.129Z,69.70
2023-04-10T16:45:27.092Z,69.70
2023-04-10T16:45:39.112Z,69.20
2023-04-10T16:45:59.886Z,69.10
2023-04-10T16:46:11.771Z,69.00
2023-04-10T16:46:23.624Z,69.00
2023-04-10T16:46:36.250Z,69.00
2023-04-10T16:46:48.177Z,69.00
2023-04-10T16:47:00.075Z,69.00
2023-04-10T16:47:12.210Z,69.10
2023-04-10T16:47:24.264Z,69.10
2023-04-10T16:47:36.381Z,69.30
2023-04-10T16:47:48.213Z,69.20
2023-04-10T16:48:00.482Z,69.40
2023-04-10T16:48:12.874Z,69.00
2023-04-10T16:48:25.789Z,68.80
2023-04-10T16:48:38.475Z,69.00
2023-04-10T16:48:52.114Z,69.00
2023-04-10T16:49:04.094Z,68.90
2023-04-10T16:49:16.064Z,69.20
2023-04-10T16:49:28.108Z,69.10
2023-04-10T16:49:45.538Z,69.00
2023-04-10T16:49:57.399Z,69.10
2023-04-10T16:50:09.960Z,69.20
2023-04-10T16:50:21.999Z,69.00
2023-04-10T16:50:36.742Z,68.80
2023-04-10T16:50:48.670Z,68.80
2023-04-10T16:51:05.728Z,69.30
2023-04-10T16:51:17.891Z,68.90
2023-04-10T16:51:29.779Z,68.70
2023-04-10T16:51:41.770Z,68.90
2023-04-10T16:51:53.718Z,69.10
2023-04-10T16:52:05.621Z,68.90
2023-04-10T16:52:17.520Z,68.60
2023-04-10T16:52:29.593Z,68.10
2023-04-10T16:52:41.609Z,68.10
2023-04-10T16:52:53.598Z,68.40
2023-04-10T16:53:05.711Z,68.50
2023-04-10T16:53:18.038Z,68.60
2023-04-10T16:53:29.873Z,68.70
2023-04-10T16:53:41.708Z,68.70
2023-04-10T16:53:53.617Z,68.90
2023-04-10T16:54:06.163Z,68.80
2023-04-10T16:54:18.022Z,68.80
2023-04-10T16:54:29.824Z,68.80
2023-04-10T16:54:42.924Z,68.90
2023-04-10T16:54:54.722Z,68.60
2023-04-10T16:55:07.011Z,68.60
2023-04-10T16:55:18.985Z,68.50
2023-04-10T16:55:30.851Z,68.70
2023-04-10T16:55:42.726Z,68.80
2023-04-10T16:55:58.719Z,68.90
2023-04-10T16:56:10.716Z,69.00
2023-04-10T16:56:23.525Z,69.00
2023-04-10T16:56:35.452Z,69.20
2023-04-10T16:56:47.302Z,69.10
2023-04-10T16:56:59.265Z,68.90
2023-04-10T16:57:11.253Z,68.90
2023-04-10T16:57:23.101Z,69.10
2023-04-10T16:57:35.002Z,69.30
2023-04-10T16:57:46.919Z,69.10
2023-04-10T16:57:58.755Z,68.90
2023-04-10T16:58:10.830Z,68.80
2023-04-10T16:58:22.805Z,69.00
2023-04-10T16:58:36.102Z,68.80
2023-04-10T16:58:47.974Z,68.90
2023-04-10T16:58:59.860Z,69.00
2023-04-10T16:59:11.815Z,68.90
2023-04-10T16:59:23.807Z,68.90
2023-04-10T16:59:35.785Z,69.00
2023-04-10T16:59:47.743Z,68.90
2023-04-10T16:59:59.790Z,69.00
2023-04-10T17:00:12.064Z,69.70
2023-04-10T17:00:24.021Z,69.30
2023-04-10T17:00:35.911Z,69.40
2023-04-10T17:00:47.800Z,69.40
2023-04-10T17:00:59.780Z,69.30
2023-04-10T17:01:18.209Z,69.70
2023-04-10T17:01:31.028Z,69.90
2023-04-10T17:01:43.024Z,69.80
2023-04-10T17:01:54.865Z,69.60
2023-04-10T17:02:06.745Z,69.20
2023-04-10T17:02:18.626Z,69.20
2023-04-10T17:02:30.942Z,69.20
2023-04-10T17:02:43.190Z,69.40
2023-04-10T17:02:55.629Z,69.20
2023-04-10T17:03:07.711Z,69.30
2023-04-10T17:03:19.590Z,69.10
2023-04-10T17:03:31.415Z,69.50
2023-04-10T17:03:43.533Z,69.70
2023-04-10T17:03:55.522Z,69.60
2023-04-10T17:04:08.315Z,69.60
2023-04-10T17:04:20.540Z,69.60
2023-04-10T17:04:32.435Z,69.30
2023-04-10T17:04:44.242Z,69.30
2023-04-10T17:04:56.417Z,69.60
2023-04-10T17:05:08.650Z,69.70
2023-04-10T17:05:20.578Z,69.60
2023-04-10T17:05:36.187Z,69.40
2023-04-10T17:05:48.057Z,69.30
2023-04-10T17:05:59.929Z,69.00
2023-04-10T17:06:11.879Z,68.80
2023-04-10T17:06:23.740Z,69.00
2023-04-10T17:06:36.387Z,69.30
2023-04-10T17:06:48.571Z,69.50
2023-04-10T17:07:00.436Z,69.60
2023-04-10T17:07:12.360Z,69.30
2023-04-10T17:07:24.342Z,69.20
2023-04-10T17:07:36.267Z,69.10
2023-04-10T17:07:48.258Z,69.00
2023-04-10T17:08:00.020Z,69.10
2023-04-10T17:08:11.871Z,69.20
2023-04-10T17:08:23.711Z,69.10
2023-04-10T17:08:35.800Z,69.20
2023-04-10T17:08:47.811Z,69.30
2023-04-10T17:08:59.654Z,69.30
2023-04-10T17:09:11.764Z,69.30
2023-04-10T17:09:23.605Z,69.30
2023-04-10T17:09:35.898Z,69.10
2023-04-10T17:09:47.684Z,69.10
2023-04-10T17:09:59.740Z,69.00
2023-04-10T17:10:11.800Z,69.00
2023-04-10T17:10:24.026Z,69.20
2023-04-10T17:10:35.841Z,69.20
2023-04-10T17:10:47.671Z,69.20
2023-04-10T17:10:59.557Z,69.20
2023-04-10T17:11:14.372Z,69.30
2023-04-10T17:11:26.203Z,69.30
2023-04-10T17:11:38.156Z,69.40
2023-04-10T17:11:50.134Z,69.50
2023-04-10T17:12:02.161Z,69.50
2023-04-10T17:12:14.105Z,69.10
2023-04-10T17:12:26.174Z,69.20
2023-04-10T17:12:39.076Z,69.30
2023-04-10T17:12:50.908Z,69.50
2023-04-10T17:13:02.814Z,69.70
2023-04-10T17:13:14.734Z,69.70
2023-04-10T17:13:26.625Z,69.10
2023-04-10T17:13:39.574Z,68.80
2023-04-10T17:13:51.483Z,69.10
2023-04-10T17:14:03.977Z,69.30
2023-04-10T17:14:16.361Z,69.40
2023-04-10T17:14:28.438Z,69.50
2023-04-10T17:14:40.466Z,69.30
2023-04-10T17:14:52.296Z,69.40
2023-04-10T17:15:04.408Z,69.60
2023-04-10T17:15:16.295Z,69.40
2023-04-10T17:15:28.256Z,69.50
2023-04-10T17:15:40.187Z,69.70
2023-04-10T17:15:51.973Z,70.10
2023-04-10T17:16:05.096Z,70.20
2023-04-10T17:16:16.898Z,70.70
2023-04-10T17:16:28.844Z,69.60
2023-04-10T17:16:41.130Z,69.60
2023-04-10T17:16:53.063Z,69.50
2023-04-10T17:17:05.108Z,69.60
2023-04-10T17:17:16.983Z,69.50
2023-04-10T17:17:28.989Z,69.60
2023-04-10T17:17:41.090Z,69.60
2023-04-10T17:17:54.169Z,69.60
2023-04-10T17:18:06.241Z,69.60
2023-04-10T17:18:20.091Z,69.60
2023-04-10T17:18:32.386Z,69.60
2023-04-10T17:18:44.326Z,69.60
2023-04-10T17:18:56.709Z,69.50
2023-04-10T17:19:08.951Z,69.60
2023-04-10T17:19:21.002Z,70.60
2023-04-10T17:19:32.945Z,70.20
2023-04-10T17:19:44.827Z,70.00
2023-04-10T17:19:56.763Z,69.60
2023-04-10T17:20:09.950Z,69.60
2023-04-10T17:20:21.835Z,69.80
2023-04-10T17:20:37.087Z,70.10
2023-04-10T17:20:49.085Z,69.90
2023-04-10T17:21:01.011Z,70.30
2023-04-10T17:21:13.344Z,70.00
2023-04-10T17:21:27.194Z,70.00
2023-04-10T17:21:39.021Z,69.80
2023-04-10T17:21:52.367Z,70.00
2023-04-10T17:22:04.169Z,69.90
2023-04-10T17:22:16.413Z,69.80
2023-04-10T17:22:28.233Z,69.90
2023-04-10T17:22:40.818Z,69.80
2023-04-10T17:22:52.686Z,69.40
2023-04-10T17:23:06.724Z,69.40
2023-04-10T17:23:18.674Z,69.60
2023-04-10T17:23:30.605Z,69.70
2023-04-10T17:23:42.545Z,70.10
2023-04-10T17:23:54.532Z,70.10
2023-04-10T17:24:06.529Z,70.00
2023-04-10T17:24:18.556Z,69.80
2023-04-10T17:24:31.604Z,69.70
2023-04-10T17:24:44.191Z,69.70
2023-04-10T17:24:56.065Z,70.40
2023-04-10T17:25:08.773Z,70.50
2023-04-10T17:25:20.696Z,70.40
2023-04-10T17:25:32.721Z,70.30
2023-04-10T17:25:44.944Z,69.90
2023-04-10T17:25:56.941Z,69.90
2023-04-10T17:26:12.887Z,70.20
2023-04-10T17:26:24.741Z,69.90
2023-04-10T17:26:36.626Z,70.00
2023-04-10T17:26:49.500Z,70.20
2023-04-10T17:27:02.042Z,70.30
2023-04-10T17:27:13.994Z,70.80
2023-04-10T17:27:25.768Z,70.60
2023-04-10T17:27:40.321Z,70.30
2023-04-10T17:27:52.642Z,70.20
2023-04-10T17:28:04.501Z,70.10
2023-04-10T17:28:16.350Z,70.20
2023-04-10T17:28:28.073Z,70.50
2023-04-10T17:28:39.925Z,70.50
2023-04-10T17:28:52.271Z,70.50
2023-04-10T17:29:04.508Z,70.60
2023-04-10T17:29:16.317Z,70.60
2023-04-10T17:29:28.134Z,70.50
2023-04-10T17:29:40.319Z,70.20
2023-04-10T17:29:52.075Z,70.20
2023-04-10T17:30:04.158Z,70.50
2023-04-10T17:30:16.008Z,70.50
2023-04-10T17:30:28.017Z,70.50
2023-04-10T17:30:39.826Z,70.40
2023-04-10T17:30:51.634Z,70.60
2023-04-10T17:31:03.606Z,70.60
2023-04-10T17:31:16.015Z,70.80
2023-04-10T17:31:28.461Z,71.00
2023-04-10T17:31:40.461Z,71.00
2023-04-10T17:31:52.347Z,70.90
2023-04-10T17:32:04.356Z,71.00
2023-04-10T17:32:16.258Z,71.00
2023-04-10T17:32:28.238Z,71.40
2023-04-10T17:32:41.832Z,71.40
2023-04-10T17:32:53.877Z,71.30
2023-04-10T17:33:06.542Z,71.20
2023-04-10T17:33:18.362Z,71.10
2023-04-10T17:33:30.241Z,71.10
2023-04-10T17:33:42.387Z,71.30
2023-04-10T17:33:54.363Z,71.70
2023-04-10T17:34:06.317Z,71.60
2023-04-10T17:34:18.193Z,71.70
2023-04-10T17:34:30.081Z,71.60
2023-04-10T17:34:42.018Z,71.90
2023-04-10T17:34:53.834Z,71.90
2023-04-10T17:35:06.174Z,71.70
2023-04-10T17:35:18.158Z,71.40
2023-04-10T17:35:30.013Z,71.40
2023-04-10T17:35:42.316Z,71.60
2023-04-10T17:35:55.552Z,71.80
2023-04-10T17:36:08.311Z,72.20
2023-04-10T17:36:20.894Z,72.20
2023-04-10T17:36:32.764Z,72.50
2023-04-10T17:36:44.780Z,72.40
2023-04-10T17:36:56.632Z,72.20
2023-04-10T17:37:08.527Z,72.00
2023-04-10T17:37:20.383Z,71.80
2023-04-10T17:37:32.160Z,71.80
2023-04-10T17:37:44.043Z,72.30
2023-04-10T17:37:55.944Z,72.10
2023-04-10T17:38:07.817Z,72.00
2023-04-10T17:38:19.722Z,71.90
2023-04-10T17:38:31.658Z,72.10
2023-04-10T17:38:46.435Z,72.80
2023-04-10T17:38:58.799Z,72.60
2023-04-10T17:39:11.004Z,72.40
2023-04-10T17:39:23.605Z,72.40
2023-04-10T17:39:35.378Z,72.40
2023-04-10T17:39:47.256Z,72.40
2023-04-10T17:39:59.381Z,72.40
2023-04-10T17:40:12.234Z,72.30
2023-04-10T17:40:25.119Z,72.40
2023-04-10T17:40:37.200Z,72.50
2023-04-10T17:40:49.012Z,72.50
2023-04-10T17:41:01.055Z,72.30
2023-04-10T17:41:14.215Z,72.50
2023-04-10T17:41:26.196Z,72.60
2023-04-10T17:41:38.043Z,72.40
2023-04-10T17:41:49.907Z,72.40
2023-04-10T17:42:01.726Z,72.60
2023-04-10T17:42:13.617Z,72.40
2023-04-10T17:42:27.363Z,72.20
2023-04-10T17:42:39.307Z,72.20
2023-04-10T17:42:51.307Z,72.40
2023-04-10T17:43:03.188Z,72.30
2023-04-10T17:43:15.028Z,72.40
2023-04-10T17:43:26.908Z,72.70
2023-04-10T17:43:38.890Z,72.60
2023-04-10T17:43:50.900Z,72.70
2023-04-10T17:44:03.260Z,72.80
2023-04-10T17:44:15.253Z,72.70
2023-04-10T17:44:28.333Z,72.60
2023-04-10T17:44:40.343Z,72.60
2023-04-10T17:44:53.160Z,72.50
2023-04-10T17:45:05.515Z,73.10
2023-04-10T17:45:17.387Z,72.50
2023-04-10T17:45:29.272Z,72.50
2023-04-10T17:45:41.312Z,73.20
2023-04-10T17:45:53.221Z,72.60
2023-04-10T17:46:05.448Z,72.50
2023-04-10T17:46:17.359Z,72.80
2023-04-10T17:46:29.217Z,72.70
2023-04-10T17:46:41.068Z,73.00
2023-04-10T17:46:54.389Z,73.10
2023-04-10T17:47:06.347Z,73.00
2023-04-10T17:47:18.231Z,72.90
2023-04-10T17:47:30.263Z,73.00
2023-04-10T17:47:42.111Z,73.20
2023-04-10T17:47:54.356Z,73.20
2023-04-10T17:48:06.469Z,73.20
2023-04-10T17:48:18.667Z,73.10
2023-04-10T17:48:31.052Z,73.10
2023-04-10T17:48:43.701Z,73.20
2023-04-10T17:49:01.361Z,73.40
2023-04-10T17:49:13.510Z,73.80
2023-04-10T17:49:25.552Z,73.70
2023-04-10T17:49:39.735Z,73.40
2023-04-10T17:49:51.617Z,73.50
2023-04-10T17:50:04.411Z,73.30
2023-04-10T17:50:16.464Z,73.20
2023-04-10T17:50:28.819Z,73.30
2023-04-10T17:50:40.782Z,73.50
2023-04-10T17:50:52.804Z,73.70
2023-04-10T17:51:07.235Z,73.70
2023-04-10T17:51:19.099Z,73.50
2023-04-10T17:51:31.687Z,73.40
2023-04-10T17:51:43.610Z,73.60
2023-04-10T17:51:55.552Z,73.60
2023-04-10T17:52:07.381Z,73.70
2023-04-10T17:52:19.340Z,73.60
2023-04-10T17:52:31.204Z,73.80
2023-04-10T17:52:44.503Z,73.80
2023-04-10T17:52:56.315Z,73.70
2023-04-10T17:53:08.106Z,73.90
2023-04-10T17:53:19.931Z,73.70
2023-04-10T17:53:31.774Z,73.70
2023-04-10T17:53:43.957Z,73.70
2023-04-10T17:53:55.806Z,73.80
2023-04-10T17:54:08.121Z,73.90
2023-04-10T17:54:20.152Z,73.80
2023-04-10T17:54:32.047Z,73.70
2023-04-10T17:54:43.897Z,73.80
2023-04-10T17:54:55.871Z,73.70
2023-04-10T17:55:08.252Z,73.70
2023-04-10T17:55:20.756Z,73.70
2023-04-10T17:55:38.255Z,73.70
2023-04-10T17:55:50.201Z,73.80
2023-04-10T17:56:03.160Z,73.90
2023-04-10T17:56:19.667Z,74.30
2023-04-10T17:56:31.860Z,74.30
2023-04-10T17:56:44.240Z,74.50
2023-04-10T17:56:56.882Z,74.90
2023-04-10T17:57:08.781Z,75.00
2023-04-10T17:57:20.669Z,74.90
2023-04-10T17:57:32.514Z,74.70
2023-04-10T17:57:44.398Z,74.60
2023-04-10T17:57:59.188Z,74.80
2023-04-10T17:58:11.134Z,75.30
2023-04-10T17:58:22.952Z,75.20
2023-04-10T17:58:35.122Z,75.20
2023-04-10T17:58:47.039Z,75.40
2023-04-10T17:59:00.548Z,75.00
2023-04-10T17:59:12.414Z,74.80
2023-04-10T17:59:24.233Z,75.20
2023-04-10T17:59:36.015Z,75.10
2023-04-10T17:59:48.135Z,74.90
2023-04-10T18:00:00.021Z,75.00
2023-04-10T18:00:16.154Z,75.00
2023-04-10T18:00:28.420Z,75.00
2023-04-10T18:00:43.088Z,75.50
2023-04-10T18:00:54.915Z,75.50
2023-04-10T18:01:07.503Z,75.50
2023-04-10T18:01:31.748Z,75.80
2023-04-10T18:01:43.795Z,75.60
2023-04-10T18:01:55.793Z,76.00
2023-04-10T18:02:07.646Z,76.00
2023-04-10T18:02:19.660Z,75.80
2023-04-10T18:02:31.687Z,75.60
2023-04-10T18:02:43.870Z,75.60
2023-04-10T18:03:01.075Z,76.10
2023-04-10T18:03:13.271Z,76.50
2023-04-10T18:03:25.260Z,76.10
2023-04-10T18:03:37.338Z,76.00
2023-04-10T18:03:49.827Z,76.20
2023-04-10T18:04:02.978Z,76.20
2023-04-10T18:04:15.138Z,76.20
2023-04-10T18:04:27.132Z,76.50
2023-04-10T18:04:39.124Z,75.90
2023-04-10T18:04:50.941Z,76.30
2023-04-10T18:05:03.688Z,76.60
2023-04-10T18:05:15.887Z,76.30
2023-04-10T18:05:28.884Z,76.20
2023-04-10T18:05:40.760Z,76.60
2023-04-10T18:05:53.042Z,76.60
2023-04-10T18:06:08.155Z,76.40
2023-04-10T18:06:20.030Z,76.20
2023-04-10T18:06:32.405Z,76.70
2023-04-10T18:06:44.258Z,76.90
2023-04-10T18:06:56.129Z,76.80
2023-04-10T18:07:07.874Z,77.00
2023-04-10T18:07:19.798Z,77.00
2023-04-10T18:07:31.589Z,76.50
2023-04-10T18:07:43.641Z,76.40
2023-04-10T18:07:55.577Z,76.60
2023-04-10T18:08:08.648Z,76.80
2023-04-10T18:08:20.646Z,76.60
2023-04-10T18:08:32.442Z,76.60
2023-04-10T18:08:44.264Z,76.60
2023-04-10T18:08:56.801Z,76.80
2023-04-10T18:09:09.006Z,77.10
2023-04-10T18:09:21.044Z,77.10
2023-04-10T18:09:32.807Z,77.60
2023-04-10T18:09:45.546Z,77.30
2023-04-10T18:09:57.398Z,77.10
2023-04-10T18:10:11.157Z,77.50
2023-04-10T18:10:23.428Z,77.20
2023-04-10T18:10:35.515Z,77.80
2023-04-10T18:10:47.390Z,77.60
2023-04-10T18:10:59.160Z,77.40
2023-04-10T18:11:11.407Z,77.20
2023-04-10T18:11:24.272Z,77.00
2023-04-10T18:11:36.196Z,76.90
2023-04-10T18:11:48.605Z,76.90
2023-04-10T18:12:01.610Z,76.90
2023-04-10T18:12:13.464Z,77.40
2023-04-10T18:12:25.346Z,77.00
2023-04-10T18:12:37.270Z,77.00
2023-04-10T18:12:49.201Z,76.80
2023-04-10T18:13:01.053Z,76.70
2023-04-10T18:13:12.911Z,76.80
2023-04-10T18:13:24.843Z,76.60
2023-04-10T18:13:36.745Z,76.80
2023-04-10T18:13:48.637Z,77.00
2023-04-10T18:14:00.680Z,77.20
2023-04-10T18:14:12.531Z,76.90
2023-04-10T18:14:24.462Z,76.90
2023-04-10T18:14:37.197Z,76.70
2023-04-10T18:14:49.215Z,76.80
2023-04-10T18:15:01.105Z,76.70
2023-04-10T18:15:14.619Z,76.80
2023-04-10T18:15:26.819Z,76.80
2023-04-10T18:15:38.817Z,77.30
2023-04-10T18:15:50.790Z,77.10
2023-04-10T18:16:02.665Z,76.90
2023-04-10T18:16:14.687Z,76.80
2023-04-10T18:16:26.659Z,77.20
2023-04-10T18:16:38.711Z,76.90
2023-04-10T18:16:50.727Z,76.80
2023-04-10T18:17:02.624Z,76.90
2023-04-10T18:17:14.852Z,77.30
2023-04-10T18:17:27.050Z,77.40
2023-04-10T18:17:39.553Z,77.40
2023-04-10T18:17:51.477Z,77.60
2023-04-10T18:18:03.698Z,77.40
2023-04-10T18:18:15.675Z,77.20
2023-04-10T18:18:28.770Z,77.10
2023-04-10T18:18:42.391Z,77.50
2023-04-10T18:18:54.569Z,77.20
2023-04-10T18:19:07.192Z,77.00
2023-04-10T18:19:21.743Z,77.20
2023-04-10T18:19:33.608Z,77.50
2023-04-10T18:19:45.567Z,77.10
2023-04-10T18:19:57.725Z,76.90
2023-04-10T18:20:10.371Z,77.30
2023-04-10T18:20:22.522Z,77.90
2023-04-10T18:20:35.400Z,77.20
2023-04-10T18:20:47.260Z,77.70
2023-04-10T18:21:02.904Z,77.70
2023-04-10T18:21:14.890Z,77.80
2023-04-10T18:21:27.250Z,77.90
2023-04-10T18:21:41.985Z,77.60
2023-04-10T18:21:53.983Z,77.60
2023-04-10T18:22:06.047Z,77.50
2023-04-10T18:22:20.824Z,77.20
2023-04-10T18:22:32.904Z,77.70
2023-04-10T18:22:47.008Z,77.70
2023-04-10T18:22:58.984Z,77.60
2023-04-10T18:23:10.873Z,77.50
2023-04-10T18:23:24.274Z,77.50
2023-04-10T18:23:36.220Z,78.10
2023-04-10T18:23:47.959Z,77.60
2023-04-10T18:23:59.722Z,77.60
2023-04-10T18:24:12.127Z,77.80
2023-04-10T18:24:23.953Z,77.60
2023-04-10T18:24:35.786Z,78.10
2023-04-10T18:24:50.661Z,78.20
2023-04-10T18:25:02.428Z,78.10
2023-04-10T18:25:15.280Z,77.80
2023-04-10T18:25:27.126Z,78.10
2023-04-10T18:25:39.039Z,78.40
2023-04-10T18:25:54.402Z,78.40
2023-04-10T18:26:06.482Z,78.50
2023-04-10T18:26:20.897Z,78.50
2023-04-10T18:26:34.879Z,78.60
2023-04-10T18:26:48.315Z,78.20
2023-04-10T18:27:00.835Z,78.10
2023-04-10T18:27:12.788Z,78.10
2023-04-10T18:27:24.569Z,78.00
2023-04-10T18:27:36.655Z,79.00
2023-04-10T18:28:04.483Z,78.90
2023-04-10T18:28:23.954Z,78.60
2023-04-10T18:28:36.459Z,78.50
2023-04-10T18:28:48.295Z,78.40
2023-04-10T18:29:00.756Z,78.50
2023-04-10T18:29:12.800Z,78.80
2023-04-10T18:29:26.442Z,78.90
2023-04-10T18:29:38.330Z,79.00
2023-04-10T18:29:50.221Z,78.80
2023-04-10T18:30:02.315Z,78.50
2023-04-10T18:30:14.435Z,78.90
2023-04-10T18:30:26.351Z,79.10
2023-04-10T18:30:39.100Z,78.70
2023-04-10T18:30:53.986Z,78.30
2023-04-10T18:31:06.510Z,78.30
2023-04-10T18:31:19.208Z,78.80
2023-04-10T18:31:31.232Z,78.50
2023-04-10T18:31:42.979Z,78.70
2023-04-10T18:31:55.084Z,78.70
2023-04-10T18:32:07.779Z,78.70
2023-04-10T18:32:19.677Z,78.90
2023-04-10T18:32:31.601Z,79.00
2023-04-10T18:32:46.329Z,78.90
2023-04-10T18:32:58.236Z,79.10
2023-04-10T18:33:11.486Z,79.00
2023-04-10T18:33:24.352Z,78.80
2023-04-10T18:33:36.166Z,78.50
2023-04-10T18:34:03.609Z,78.60
2023-04-10T18:34:18.839Z,78.80
2023-04-10T18:34:30.711Z,79.10
2023-04-10T18:34:42.490Z,78.90
2023-04-10T18:34:54.314Z,78.80
2023-04-10T18:35:06.514Z,78.80
2023-04-10T18:35:19.027Z,79.00
2023-04-10T18:35:31.442Z,79.00
2023-04-10T18:35:43.522Z,79.20
2023-04-10T18:35:59.088Z,79.20
2023-04-10T18:36:11.109Z,79.40
2023-04-10T18:36:24.191Z,79.30
2023-04-10T18:36:36.022Z,79.50
2023-04-10T18:36:47.850Z,79.30
2023-04-10T18:36:59.870Z,79.70
2023-04-10T18:37:11.687Z,79.80
2023-04-10T18:37:23.516Z,79.70
2023-04-10T18:37:35.418Z,79.70
2023-04-10T18:37:47.340Z,79.80
2023-04-10T18:37:59.147Z,79.30
2023-04-10T18:38:11.022Z,79.30
2023-04-10T18:38:23.748Z,79.80
2023-04-10T18:38:35.616Z,79.80
2023-04-10T18:38:47.883Z,79.80
2023-04-10T18:38:59.634Z,79.70
2023-04-10T18:39:11.426Z,79.40
2023-04-10T18:39:23.334Z,79.40
2023-04-10T18:39:38.160Z,79.30
2023-04-10T18:39:49.994Z,79.30
2023-04-10T18:40:09.944Z,80.00
2023-04-10T18:40:27.593Z,80.00
2023-04-10T18:40:39.517Z,80.10
2023-04-10T18:40:54.764Z,80.10
2023-04-10T18:41:06.691Z,80.50
2023-04-10T18:41:18.794Z,80.10
2023-04-10T18:41:30.742Z,79.90
2023-04-10T18:41:42.764Z,79.80
2023-04-10T18:41:54.555Z,79.70
2023-04-10T18:42:08.326Z,79.60
2023-04-10T18:42:20.118Z,79.40
2023-04-10T18:42:31.943Z,79.50
2023-04-10T18:42:43.730Z,79.40
2023-04-10T18:42:55.649Z,79.50
2023-04-10T18:43:07.421Z,79.20
2023-04-10T18:43:19.372Z,79.40
2023-04-10T18:43:31.310Z,79.60
2023-04-10T18:43:48.683Z,79.40
2023-04-10T18:44:06.180Z,79.30
2023-04-10T18:44:18.090Z,79.20
2023-04-10T18:44:30.594Z,79.00
2023-04-10T18:44:43.197Z,79.20
2023-04-10T18:44:55.207Z,79.10
2023-04-10T18:45:07.511Z,79.80
2023-04-10T18:45:20.474Z,79.50
2023-04-10T18:45:35.556Z,79.30
2023-04-10T18:45:47.446Z,79.50
2023-04-10T18:45:59.888Z,79.10
2023-04-10T18:46:11.728Z,79.40
2023-04-10T18:46:27.938Z,79.60
2023-04-10T18:46:42.757Z,79.80
2023-04-10T18:47:03.904Z,80.10
2023-04-10T18:47:16.375Z,80.40
2023-04-10T18:47:28.239Z,81.00
2023-04-10T18:47:40.114Z,80.60
2023-04-10T18:47:51.941Z,80.50
2023-04-10T18:48:03.907Z,80.40
2023-04-10T18:48:15.784Z,80.30
2023-04-10T18:48:27.585Z,80.40
2023-04-10T18:48:42.911Z,81.00
2023-04-10T18:48:56.041Z,80.50
2023-04-10T18:49:08.189Z,80.30
2023-04-10T18:49:19.971Z,80.00
2023-04-10T18:49:31.857Z,80.00
2023-04-10T18:49:43.661Z,80.50
2023-04-10T18:49:55.563Z,80.10
2023-04-10T18:50:10.410Z,80.20
2023-04-10T18:50:22.227Z,80.50
2023-04-10T18:50:36.916Z,81.00
2023-04-10T18:50:52.040Z,81.00
2023-04-10T18:51:04.271Z,81.00
2023-04-10T18:51:16.215Z,81.00
2023-04-10T18:51:28.670Z,81.10
2023-04-10T18:51:40.912Z,80.90
2023-04-10T18:51:53.142Z,80.50
2023-04-10T18:52:05.198Z,80.40
2023-04-10T18:52:16.956Z,80.30
2023-04-10T18:52:28.830Z,80.30
2023-04-10T18:52:40.632Z,80.30
2023-04-10T18:52:52.543Z,80.40
2023-04-10T18:53:04.413Z,80.50
2023-04-10T18:53:16.214Z,80.70
2023-04-10T18:53:28.329Z,80.30
2023-04-10T18:53:41.412Z,80.20
2023-04-10T18:53:53.534Z,80.40
2023-04-10T18:54:05.895Z,80.30
2023-04-10T18:54:17.644Z,80.30
2023-04-10T18:54:29.900Z,80.30
2023-04-10T18:54:42.010Z,80.20
2023-04-10T18:54:53.901Z,79.80
2023-04-10T18:55:06.289Z,79.70
2023-04-10T18:55:18.243Z,80.20
2023-04-10T18:55:30.094Z,80.30
2023-04-10T18:55:48.292Z,80.40
2023-04-10T18:56:00.103Z,80.50
2023-04-10T18:56:12.003Z,80.80
2023-04-10T18:56:23.782Z,80.80
2023-04-10T18:56:35.968Z,80.80
2023-04-10T18:56:47.828Z,80.80
2023-04-10T18:56:59.668Z,80.60
2023-04-10T18:57:12.079Z,80.20
2023-04-10T18:57:23.940Z,80.10
2023-04-10T18:57:35.988Z,80.40
2023-04-10T18:57:47.803Z,80.40
2023-04-10T18:57:59.608Z,80.20
2023-04-10T18:58:11.382Z,80.00
2023-04-10T18:58:23.231Z,80.10
2023-04-10T18:58:35.332Z,79.90
2023-04-10T18:58:49.674Z,79.80
2023-04-10T18:59:02.036Z,79.70
2023-04-10T18:59:13.791Z,79.60
2023-04-10T18:59:26.948Z,79.70
2023-04-10T18:59:38.799Z,80.30
2023-04-10T18:59:50.696Z,80.60
2023-04-10T19:00:04.555Z,80.50
2023-04-10T19:00:17.014Z,80.40
2023-04-10T19:00:29.302Z,80.50
2023-04-10T19:00:41.076Z,80.10
2023-04-10T19:00:53.534Z,80.10
2023-04-10T19:01:06.262Z,80.40
2023-04-10T19:01:18.183Z,80.30
2023-04-10T19:01:30.076Z,80.40
2023-04-10T19:01:42.056Z,80.50
2023-04-10T19:01:54.153Z,80.50
2023-04-10T19:02:06.412Z,80.60
2023-04-10T19:02:18.353Z,81.00
2023-04-10T19:02:30.238Z,81.20
2023-04-10T19:02:42.286Z,81.20
2023-04-10T19:02:55.446Z,80.80
2023-04-10T19:03:10.307Z,81.10
2023-04-10T19:03:22.363Z,81.00
2023-04-10T19:03:34.464Z,80.80
2023-04-10T19:03:49.128Z,80.60
2023-04-10T19:04:02.896Z,80.60
2023-04-10T19:04:15.353Z,80.50
2023-04-10T19:04:27.239Z,80.80
2023-04-10T19:04:41.292Z,80.50
2023-04-10T19:04:53.701Z,80.30
2023-04-10T19:05:06.043Z,80.30
2023-04-10T19:05:18.005Z,80.50
2023-04-10T19:05:34.218Z,80.30
2023-04-10T19:05:46.117Z,80.20
2023-04-10T19:05:58.091Z,80.20
2023-04-10T19:06:10.271Z,80.30
2023-04-10T19:06:25.512Z,80.70
2023-04-10T19:06:39.701Z,81.00
2023-04-10T19:06:51.578Z,81.60
2023-04-10T19:07:03.838Z,81.00
2023-04-10T19:07:15.629Z,80.60
2023-04-10T19:07:27.402Z,80.50
2023-04-10T19:07:39.284Z,80.80
2023-04-10T19:08:03.049Z,80.50
2023-04-10T19:08:17.206Z,80.50
2023-04-10T19:08:29.046Z,80.40
2023-04-10T19:08:40.820Z,80.50
2023-04-10T19:08:52.654Z,80.50
2023-04-10T19:09:04.560Z,80.20
2023-04-10T19:09:16.547Z,80.20
2023-04-10T19:09:28.421Z,80.30
2023-04-10T19:09:40.312Z,80.60
2023-04-10T19:09:52.164Z,80.90
2023-04-10T19:10:04.185Z,80.80
2023-04-10T19:10:16.069Z,80.60
2023-04-10T19:10:27.867Z,80.40
2023-04-10T19:10:40.257Z,80.20
2023-04-10T19:10:51.972Z,80.30
2023-04-10T19:11:07.350Z,80.60
2023-04-10T19:11:19.398Z,80.80
2023-04-10T19:11:32.038Z,81.00
2023-04-10T19:11:43.869Z,81.40
2023-04-10T19:11:56.282Z,81.40
2023-04-10T19:12:08.070Z,81.20
2023-04-10T19:12:19.903Z,81.00
2023-04-10T19:12:31.686Z,80.90
2023-04-10T19:12:43.986Z,80.90
2023-04-10T19:12:57.277Z,80.80
2023-04-10T19:13:09.855Z,80.80
2023-04-10T19:13:22.856Z,80.80
2023-04-10T19:13:34.686Z,80.80
2023-04-10T19:13:46.481Z,81.00
2023-04-10T19:13:58.445Z,81.00
2023-04-10T19:14:10.485Z,81.20
2023-04-10T19:14:22.326Z,80.90